createdAt,value
2023-01-13T00:01:59.561Z,0.80
2023-01-13T00:06:59.487Z,1.60
2023-01-13T00:11:59.425Z,1.00
2023-01-13T00:16:59.362Z,0.70
2023-01-13T00:21:59.319Z,0.60
2023-01-13T00:26:59.225Z,0.80
2023-01-13T00:31:59.157Z,0.30
2023-01-13T00:36:59.091Z,1.00
2023-01-13T00:41:59.045Z,1.40
2023-01-13T00:46:58.953Z,0.70
2023-01-13T00:51:58.921Z,0.50
2023-01-13T00:56:58.834Z,0.60
2023-01-13T01:01:58.881Z,1.60
2023-01-13T01:06:58.749Z,0.60
2023-01-13T01:11:58.648Z,2.40
2023-01-13T01:16:58.575Z,2.30
2023-01-13T01:21:58.521Z,1.70
2023-01-13T01:26:58.459Z,2.70
2023-01-13T01:31:58.401Z,1.00
2023-01-13T01:36:58.307Z,1.40
2023-01-13T01:41:58.246Z,1.30
2023-01-13T01:46:58.295Z,1.20
2023-01-13T01:51:58.163Z,1.60
2023-01-13T01:56:58.045Z,1.10
2023-01-13T02:01:58.085Z,0.50
2023-01-13T02:06:57.916Z,1.10
2023-01-13T02:11:57.855Z,0.90
2023-01-13T02:16:57.821Z,1.00
2023-01-13T02:21:57.719Z,1.20
2023-01-13T02:26:57.669Z,1.50
2023-01-13T02:31:57.656Z,1.10
2023-01-13T02:36:57.524Z,1.00
2023-01-13T02:41:57.457Z,0.60
2023-01-13T02:46:57.402Z,0.90
2023-01-13T02:51:57.317Z,1.70
2023-01-13T02:56:57.255Z,0.50
2023-01-13T03:01:57.394Z,0.50
2023-01-13T03:06:57.028Z,1.80
2023-01-13T03:11:56.988Z,1.40
2023-01-13T03:16:56.902Z,1.30
2023-01-13T03:21:56.851Z,0.80
2023-01-13T03:26:56.766Z,0.70
2023-01-13T03:31:56.700Z,1.10
2023-01-13T03:36:56.629Z,2.10
2023-01-13T03:41:56.565Z,1.30
2023-01-13T03:46:56.522Z,2.90
2023-01-13T03:51:56.423Z,1.50
2023-01-13T03:56:56.369Z,2.80
2023-01-13T04:01:56.501Z,1.00
2023-01-13T04:06:56.262Z,0.90
2023-01-13T04:11:56.162Z,0.70
2023-01-13T04:16:56.111Z,1.00
2023-01-13T04:21:56.024Z,0.90
2023-01-13T04:26:55.969Z,0.70
2023-01-13T04:31:55.904Z,1.10
2023-01-13T04:36:55.831Z,1.30
2023-01-13T04:41:55.816Z,0.50
2023-01-13T04:46:55.697Z,0.60
2023-01-13T04:51:55.648Z,0.70
2023-01-13T04:56:55.574Z,0.20
2023-01-13T05:01:55.586Z,1.00
2023-01-13T05:06:55.435Z,1.10
2023-01-13T05:11:55.383Z,1.10
2023-01-13T05:16:55.309Z,0.50
2023-01-13T05:21:55.270Z,0.30
2023-01-13T05:26:55.208Z,5.10
2023-01-13T05:31:55.129Z,1.40
2023-01-13T05:36:55.072Z,0.70
2023-01-13T05:41:54.982Z,2.10
2023-01-13T05:46:54.984Z,2.50
2023-01-13T05:51:54.869Z,0.70
2023-01-13T05:56:54.778Z,1.10
2023-01-13T06:01:54.745Z,1.50
2023-01-13T06:06:54.652Z,0.80
2023-01-13T06:11:54.599Z,1.20
2023-01-13T06:16:54.519Z,1.70
2023-01-13T06:21:54.471Z,2.30
2023-01-13T06:26:54.415Z,0.90
2023-01-13T06:31:54.407Z,1.60
2023-01-13T06:36:54.281Z,1.20
2023-01-13T06:41:54.211Z,1.30
2023-01-13T06:46:54.192Z,1.80
2023-01-13T06:51:54.052Z,0.40
2023-01-13T06:56:54.004Z,1.20
2023-01-13T07:01:54.102Z,1.40
2023-01-13T07:06:53.878Z,1.30
2023-01-13T07:11:53.817Z,0.90
2023-01-13T07:16:53.721Z,1.40
2023-01-13T07:21:53.637Z,1.10
2023-01-13T07:26:53.617Z,1.00
2023-01-13T07:31:53.587Z,0.60
2023-01-13T07:36:53.461Z,0.80
2023-01-13T07:41:53.436Z,1.20
2023-01-13T07:46:53.310Z,0.30
2023-01-13T07:51:53.292Z,1.00
2023-01-13T07:56:53.178Z,0.60
2023-01-13T08:01:53.306Z,0.90
2023-01-13T08:07:00.051Z,0.60
2023-01-13T08:11:52.991Z,0.50
2023-01-13T08:16:52.941Z,1.10
2023-01-13T08:21:52.869Z,0.50
2023-01-13T08:26:52.801Z,0.50
2023-01-13T08:31:52.761Z,0.40
2023-01-13T08:36:52.679Z,0.80
2023-01-13T08:41:52.585Z,0.50
2023-01-13T08:46:52.564Z,1.30
2023-01-13T08:51:52.482Z,1.80
2023-01-13T08:56:52.514Z,0.40
2023-01-13T09:01:52.452Z,0.60
2023-01-13T09:06:52.307Z,0.50
2023-01-13T09:11:52.199Z,0.70
2023-01-13T09:16:52.160Z,0.80
2023-01-13T09:21:52.077Z,1.20
2023-01-13T09:26:51.998Z,1.10
2023-01-13T09:31:51.938Z,0.80
2023-01-13T09:36:51.868Z,0.90
2023-01-13T09:41:51.807Z,1.40
2023-01-13T09:46:51.774Z,1.30
2023-01-13T09:51:51.725Z,1.90
2023-01-13T09:56:51.585Z,1.10
2023-01-13T10:01:51.538Z,3.60
2023-01-13T10:06:51.484Z,2.30
2023-01-13T10:11:51.421Z,1.80
2023-01-13T10:16:51.392Z,2.20
2023-01-13T10:21:51.364Z,2.10
2023-01-13T10:26:51.220Z,1.30
2023-01-13T10:31:51.148Z,1.30
2023-01-13T10:36:51.116Z,2.20
2023-01-13T10:41:51.036Z,0.80
2023-01-13T10:46:51.091Z,0.90
2023-01-13T10:51:51.023Z,1.00
2023-01-13T10:56:50.826Z,1.90
2023-01-13T11:01:53.146Z,0.70
2023-01-13T11:06:50.719Z,2.60
2023-01-13T11:11:50.625Z,2.00
2023-01-13T11:16:53.753Z,1.60
2023-01-13T11:21:50.488Z,1.90
2023-01-13T11:26:50.463Z,1.70
2023-01-13T11:31:50.378Z,1.40
2023-01-13T11:36:50.342Z,1.10
2023-01-13T11:41:50.247Z,1.20
2023-01-13T11:46:50.208Z,1.50
2023-01-13T11:51:50.095Z,1.40
2023-01-13T11:56:50.078Z,1.90
2023-01-13T12:01:50.049Z,1.90
2023-01-13T12:06:49.896Z,1.20
2023-01-13T12:11:49.861Z,1.50
2023-01-13T12:16:49.862Z,1.80
2023-01-13T12:21:49.741Z,1.80
2023-01-13T12:26:49.645Z,2.10
2023-01-13T12:31:49.609Z,3.80
2023-01-13T12:36:49.519Z,1.60
2023-01-13T12:41:49.452Z,1.70
2023-01-13T12:46:49.512Z,4.10
2023-01-13T12:51:49.324Z,2.90
2023-01-13T12:56:49.240Z,2.30
2023-01-13T13:01:49.306Z,1.70
2023-01-13T13:06:49.110Z,2.40
2023-01-13T13:11:49.047Z,1.70
2023-01-13T13:16:49.064Z,3.70
2023-01-13T13:21:48.906Z,1.60
2023-01-13T13:26:48.866Z,1.90
2023-01-13T13:31:48.785Z,2.30
2023-01-13T13:36:49.459Z,2.00
2023-01-13T13:41:48.656Z,1.60
2023-01-13T13:46:48.627Z,2.80
2023-01-13T13:51:48.543Z,2.30
2023-01-13T13:56:48.471Z,3.40
2023-01-13T14:01:48.506Z,1.90
2023-01-13T14:06:48.579Z,2.70
2023-01-13T14:11:48.220Z,1.20
2023-01-13T14:16:48.143Z,2.10
2023-01-13T14:21:48.082Z,2.10
2023-01-13T14:26:48.033Z,2.10
2023-01-13T14:31:48.089Z,1.70
2023-01-13T14:36:47.962Z,2.00
2023-01-13T14:41:47.809Z,3.30
2023-01-13T14:46:47.911Z,2.70
2023-01-13T14:51:47.786Z,1.40
2023-01-13T14:56:47.649Z,2.40
2023-01-13T15:01:47.576Z,2.00
2023-01-13T15:06:47.449Z,1.60
2023-01-13T15:11:47.370Z,1.80
2023-01-13T15:16:54.284Z,1.80
2023-01-13T15:21:47.223Z,2.30
2023-01-13T15:26:47.165Z,1.20
2023-01-13T15:31:47.103Z,0.80
2023-01-13T15:36:47.764Z,1.30
2023-01-13T15:41:46.969Z,1.20
2023-01-13T15:46:46.952Z,1.00
2023-01-13T15:51:46.831Z,1.30
2023-01-13T15:56:46.825Z,1.80
2023-01-13T16:01:46.725Z,1.30
2023-01-13T16:06:46.643Z,1.80
2023-01-13T16:11:46.589Z,2.20
2023-01-13T16:16:46.518Z,1.40
2023-01-13T16:21:46.491Z,2.10
2023-01-13T16:26:46.476Z,1.30
2023-01-13T16:31:46.465Z,3.10
2023-01-13T16:36:46.300Z,2.80
2023-01-13T16:41:46.239Z,2.80
2023-01-13T16:46:46.244Z,3.30
2023-01-13T16:51:46.193Z,3.30
2023-01-13T16:56:46.080Z,3.70
2023-01-13T17:01:46.146Z,2.70
2023-01-13T17:06:45.941Z,4.00
2023-01-13T17:11:45.905Z,3.60
2023-01-13T17:16:46.305Z,7.80
2023-01-13T17:21:45.824Z,4.60
2023-01-13T17:26:45.969Z,5.10
2023-01-13T17:31:46.716Z,4.70
2023-01-13T17:36:45.608Z,3.30
2023-01-13T17:41:45.813Z,11.00
2023-01-13T17:46:45.479Z,7.20
2023-01-13T17:51:45.397Z,3.10
2023-01-13T17:56:45.558Z,9.90
2023-01-13T18:01:45.394Z,4.90
2023-01-13T18:06:45.220Z,3.70
2023-01-13T18:11:47.089Z,7.10
2023-01-13T18:16:45.234Z,5.10
2023-01-13T18:21:45.312Z,5.00
2023-01-13T18:26:44.911Z,3.20
2023-01-13T18:31:44.860Z,5.10
2023-01-13T18:36:44.927Z,4.50
2023-01-13T18:41:44.743Z,4.60
2023-01-13T18:46:44.743Z,6.60
2023-01-13T18:51:44.740Z,4.10
2023-01-13T18:56:44.568Z,4.50
2023-01-13T19:01:44.578Z,3.70
2023-01-13T19:06:44.425Z,4.40
2023-01-13T19:11:46.170Z,4.50
2023-01-13T19:16:44.265Z,3.40
2023-01-13T19:21:44.245Z,4.50
2023-01-13T19:26:44.156Z,5.70
2023-01-13T19:31:44.075Z,3.90
2023-01-13T19:36:44.010Z,4.90
2023-01-13T19:41:44.045Z,4.80
2023-01-13T19:46:43.939Z,4.50
2023-01-13T19:51:44.770Z,2.70
2023-01-13T19:56:43.745Z,3.90
2023-01-13T20:01:43.776Z,4.30
2023-01-13T20:06:43.680Z,3.70
2023-01-13T20:11:43.709Z,3.70
2023-01-13T20:16:43.575Z,4.70
2023-01-13T20:21:43.476Z,3.60
2023-01-13T20:26:43.437Z,3.70
2023-01-13T20:31:43.500Z,5.30
2023-01-13T20:36:43.411Z,3.40
2023-01-13T20:41:43.394Z,3.30
2023-01-13T20:46:43.401Z,5.00
2023-01-13T20:51:43.329Z,4.20
2023-01-13T20:56:43.673Z,2.70
2023-01-13T21:01:43.112Z,2.90
2023-01-13T21:06:42.835Z,4.80
2023-01-13T21:11:42.770Z,3.80
2023-01-13T21:16:42.795Z,4.70
2023-01-13T21:21:42.658Z,3.70
2023-01-13T21:26:42.609Z,4.90
2023-01-13T21:31:42.572Z,5.30
2023-01-13T21:36:42.476Z,6.40
2023-01-13T21:41:42.563Z,4.80
2023-01-13T21:46:42.426Z,3.90
2023-01-13T21:51:44.880Z,5.90
2023-01-13T21:56:42.369Z,4.20
2023-01-13T22:01:45.946Z,4.40
2023-01-13T22:06:43.094Z,5.00
2023-01-13T22:11:42.019Z,4.70
2023-01-13T22:16:42.105Z,6.00
2023-01-13T22:21:41.906Z,3.00
2023-01-13T22:26:48.811Z,3.90
2023-01-13T22:31:41.800Z,6.30
2023-01-13T22:36:41.677Z,5.50
2023-01-13T22:41:41.628Z,4.20
2023-01-13T22:46:41.661Z,5.70
2023-01-13T22:51:41.507Z,4.30
2023-01-13T22:56:41.432Z,4.80
2023-01-13T23:01:41.375Z,2.80
2023-01-13T23:06:41.300Z,4.60
2023-01-13T23:11:41.324Z,4.40
2023-01-13T23:16:41.331Z,4.60
2023-01-13T23:21:41.155Z,3.60
2023-01-13T23:26:41.405Z,3.40
2023-01-13T23:31:40.996Z,3.80
2023-01-13T23:36:41.405Z,4.40
2023-01-13T23:41:41.012Z,3.80
2023-01-13T23:46:40.818Z,3.80
2023-01-13T23:51:40.729Z,4.40
2023-01-13T23:56:40.647Z,3.20
